Ship Status Report: callsign AMOUK20

sailwx.info

Track history (hours):
 
Tides and Currents Weather Stations Pressure Air Temp Water Temp Dewpoint Dewpoint Depression Visibility Wind Speed Wind Dir Waves Ship Positions

Callsign AMOUK20 (name unknown)

Last reported at 2014-Jul-24 03:00 UTC. Time now 2014-Jul-24 04:27 UTC.
Position N 04°24' E 005°00'.

Barometer 1015.4 mb
Air temperature 23.9 ° C

Date/timePositionNaut miles runAvg speedWind from/ knotsBaromVisibWave heightAir tempDewpointWater temp
2014-Jul-24 03:00N 04°24' E 005°00'13 6.7 1015.4 23.9
2014-Jul-24 01:00N 04°36' E 004°54'8 8.5 1016.0 24.2
2014-Jul-24 00:00N 04°42' E 004°48'6 6.0 1016.4 24.3
2014-Jul-23 23:00N 04°48' E 004°48'8 8.5 1017.0 24.5
2014-Jul-23 22:00N 04°54' E 004°42'1212.0 1016.9 24.5
2014-Jul-23 21:00N 05°06' E 004°42'6 6.0 1016.2 24.6
2014-Jul-23 20:00N 05°12' E 004°42'8 8.5 1016.1 24.6
2014-Jul-23 19:00N 05°18' E 004°36'6 6.0 1015.6 24.8
2014-Jul-23 18:00N 05°24' E 004°36'8 8.5 1015.0 24.8
2014-Jul-23 17:00N 05°30' E 004°30'8 8.5 1014.3 25.0
2014-Jul-23 16:00N 05°36' E 004°24'6 6.0 1014.3 25.3
2014-Jul-23 15:00N 05°42' E 004°24'8 8.5 1014.5 25.6
2014-Jul-23 14:00N 05°48' E 004°18'6 6.0 1014.8 25.6
2014-Jul-23 13:00N 05°48' E 004°12'8 8.5 1015.5 25.9
2014-Jul-23 12:00N 05°54' E 004°06'8 8.5 1016.5 25.3
2014-Jul-23 11:00N 06°00' E 004°00'6 6.0 1017.0 25.2
2014-Jul-23 10:00N 06°06' E 004°00'6 6.0 1017.4 25.3
2014-Jul-23 09:00N 06°06' E 003°54'6 6.0 1017.4 25.4
2014-Jul-23 08:00N 06°06' E 003°48'1211.9 1016.5 24.9
2014-Jul-23 07:00N 06°06' E 003°36'6 6.0 1016.3 24.7
2014-Jul-23 06:00N 06°06' E 003°30'6 6.0 1015.8 24.5
2014-Jul-23 05:00N 06°06' E 003°24'6 6.0 1015.2 24.3
2014-Jul-23 04:00N 06°06' E 003°18'1211.9 1014.9 24.2
2014-Jul-23 03:00N 06°06' E 003°06'6 6.0 1014.7 24.2
2014-Jul-23 02:00N 06°06' E 003°00'6 6.0 1014.8 24.3
2014-Jul-23 01:00N 06°06' E 002°54'6 6.0 1015.4 24.4
2014-Jul-23 00:00N 06°06' E 002°48'18 8.9 1015.5 24.4
2014-Jul-22 22:00N 06°06' E 002°30'6 6.0 1016.5 24.4
2014-Jul-22 21:00N 06°06' E 002°24'6 6.0 1016.4 24.3
2014-Jul-22 20:00N 06°06' E 002°18'6 6.0 1016.0 24.3
2014-Jul-22 19:00N 06°06' E 002°12'1211.9 1015.5 24.2
2014-Jul-22 18:00N 06°06' E 002°00'13 6.7 1015.3 24.2
2014-Jul-22 16:00N 06°00' E 001°48'6 6.0 1014.8 24.5
2014-Jul-22 15:00N 06°00' E 001°42'6 6.0 1014.4 24.5
2014-Jul-22 14:00N 06°00' E 001°36'1313.4 1015.0 24.1
2014-Jul-22 13:00N 05°54' E 001°24'6 6.0 1015.9 23.9
2014-Jul-22 12:00N 05°54' E 001°18'0 0.0 1016.8 23.9
2014-Jul-22 11:00N 05°54' E 001°18'1313.4 1017.1 23.8
2014-Jul-22 10:00N 05°42' E 001°12'0 0.0 1018.0 23.7
2014-Jul-22 09:00N 05°42' E 001°12'8 8.5 1017.9 23.4
2014-Jul-22 08:00N 05°36' E 001°06'6 6.0 1017.4 23.4
2014-Jul-22 07:00N 05°30' E 001°06'6 6.0 1016.3 23.3
2014-Jul-22 06:00N 05°30' E 001°00'1211.9 1015.9 22.9
2014-Jul-22 05:00N 05°30' E 000°48'6 6.0 1016.2 22.8
2014-Jul-22 04:00N 05°30' E 000°42'6 6.0 1015.4 22.7
2014-Jul-22 03:00N 05°30' E 000°36'6 6.0 1015.3 22.7
2014-Jul-22 02:00N 05°30' E 000°30'6 6.0 1015.5 22.5
2014-Jul-22 01:00N 05°30' E 000°24'6 6.0 1015.8 22.6
2014-Jul-22 00:00N 05°30' E 000°18'19 9.4 1016.2 22.7
2014-Jul-21 22:00N 05°24' E 000°00'6 6.0 1016.5 23.1
2014-Jul-21 21:00N 05°18' E 000°00'8 8.5 1016.3 23.1
2014-Jul-21 20:00N 05°12' W 000°06'6 6.0 1016.3 23.2
2014-Jul-21 19:00N 05°12' W 000°12'8 8.5 1016.3 23.7
2014-Jul-21 18:00N 05°06' W 000°18'8 8.5 1015.9 24.6
2014-Jul-21 17:00N 05°00' W 000°24'8 8.5 1015.3 25.6
2014-Jul-21 16:00N 04°54' W 000°30'6 6.0 1015.1 26.3
2014-Jul-21 15:00N 04°48' W 000°30'13 6.7 1015.4 24.5
2014-Jul-21 13:00N 04°42' W 000°42'8 8.5 1016.6 26.0
2014-Jul-21 12:00N 04°36' W 000°48'8 8.5 1017.3 25.6
2014-Jul-21 11:00N 04°30' W 000°54'8 8.5 1018.1 24.9
2014-Jul-21 10:00N 04°24' W 001°00'6 6.0 1018.2 24.4
2014-Jul-21 09:00N 04°24' W 001°06'8 8.5 1018.2 24.2
2014-Jul-21 08:00N 04°18' W 001°12'6 6.0 1017.7 23.5
2014-Jul-21 07:00N 04°18' W 001°18'8 8.5 1017.1 23.3
2014-Jul-21 06:00N 04°12' W 001°24'6 6.0 1016.5 23.1
2014-Jul-21 05:00N 04°12' W 001°30'6 6.0 1016.0 23.3
2014-Jul-21 04:00N 04°12' W 001°36'6 6.0 1015.8 23.3
2014-Jul-21 03:00N 04°12' W 001°42'6 6.0 1015.9 23.3
2014-Jul-21 02:00N 04°12' W 001°48'8 8.5 1016.1 23.2
2014-Jul-21 01:00N 04°18' W 001°54'6 6.0 1016.5 23.3
2014-Jul-21 00:00N 04°18' W 002°00'8 8.5 1016.8 23.3
2014-Jul-20 23:00N 04°24' W 002°06'6 6.0 1017.0 23.4
2014-Jul-20 22:00N 04°24' W 002°12'6 6.0 1017.2 23.3
2014-Jul-20 21:00N 04°24' W 002°18'8 8.5 1016.9 23.3
2014-Jul-20 20:00N 04°30' W 002°24'6 6.0 1016.4 23.5
2014-Jul-20 19:00N 04°30' W 002°30'8 8.5 1015.6 23.5
2014-Jul-20 18:00N 04°36' W 002°36'6 6.0 1014.9 23.7
2014-Jul-20 17:00N 04°36' W 002°42'8 8.5 1014.6 24.2
2014-Jul-20 16:00N 04°42' W 002°48'6 6.0 1014.9 24.0
2014-Jul-20 15:00N 04°42' W 002°54'18 9.0 1015.1 24.4
2014-Jul-20 13:00N 04°42' W 003°12'8 8.5 1016.3 24.7
2014-Jul-20 12:00N 04°48' W 003°18'12 6.0 1016.8 24.7
2014-Jul-20 10:00N 04°48' W 003°30'8 8.5 1017.3 24.5
2014-Jul-20 09:00N 04°54' W 003°36'6 6.0 1017.0 24.3
2014-Jul-20 08:00N 04°54' W 003°42'8 8.5 1016.9 23.1
2014-Jul-20 07:00N 05°00' W 003°48'12 6.0 1015.9 22.7
2014-Jul-20 05:00N 05°00' W 004°00'6 6.0 1015.2 22.9
2014-Jul-20 04:00N 05°00' W 004°06'6 6.0 1014.8 22.7
2014-Jul-20 03:00N 05°00' W 004°12'13 6.7 1014.4 22.8
2014-Jul-20 01:00N 04°54' W 004°24'6 6.0 1015.5 22.8
2014-Jul-20 00:00N 04°54' W 004°30'6 6.0 1015.5 22.9
2014-Jul-19 23:00N 04°54' W 004°36'6 6.0 1016.5 23.0
2014-Jul-19 22:00N 04°54' W 004°42'1212.0 1016.6 23.0
2014-Jul-19 21:00N 04°54' W 004°54'6 6.0 1016.3 22.8
2014-Jul-19 20:00N 04°54' W 005°00'6 6.0 1015.8 23.6
2014-Jul-19 19:00N 04°54' W 005°06'6 6.0 1015.2 23.9
2014-Jul-19 18:00N 04°54' W 005°12'6 6.0 1014.5 24.7
2014-Jul-19 17:00N 04°54' W 005°18'8 8.5 1014.3 25.5
2014-Jul-19 16:00N 04°48' W 005°24'6 6.0 1014.5 26.7
2014-Jul-19 15:00N 04°48' W 005°30'19 9.5 1014.9 26.7
2014-Jul-19 13:00N 04°42' W 005°48'6 6.0 1016.7 24.0
2014-Jul-19 12:00N 04°42' W 005°54'6 6.0 1017.1 25.6
2014-Jul-19 11:00N 04°42' W 006°00'8 8.5 1017.9 24.8
2014-Jul-19 10:00N 04°36' W 006°06'6 6.0 1018.0 22.8
2014-Jul-19 09:00N 04°36' W 006°12'12 6.0 1017.6 22.6
2014-Jul-19 07:00N 04°36' W 006°24'8 8.5 1016.5 22.9
2014-Jul-19 06:00N 04°30' W 006°30'6 6.0 1016.2 23.3
2014-Jul-19 05:00N 04°30' W 006°36'8 8.5 1015.8 23.5
2014-Jul-19 04:00N 04°24' W 006°42'13 6.7 1015.6 24.1
2014-Jul-19 02:00N 04°18' W 006°54'6 6.0 1016.0 24.4
2014-Jul-19 01:00N 04°18' W 007°00'1212.0 1016.5 24.5
2014-Jul-19 00:00N 04°18' W 007°12'8 8.5 1017.0 24.6
2014-Jul-18 23:00N 04°12' W 007°18'13 6.7 1017.5 24.4
2014-Jul-18 21:00N 04°06' W 007°30'6 6.0 1016.9 24.5
2014-Jul-18 20:00N 04°06' W 007°36'6 6.0 1016.2 24.8
2014-Jul-18 19:00N 04°06' W 007°42'8 8.5 1016.0 24.9
2014-Jul-18 18:00N 04°12' W 007°48'6 6.0 1015.5 25.1
2014-Jul-18 17:00N 04°12' W 007°54'19 9.5 1015.2 25.5
2014-Jul-18 15:00N 04°18' W 008°12'6 6.0 1015.8 26.2
2014-Jul-18 14:00N 04°18' W 008°18'8 8.5 1016.2 26.4
2014-Jul-18 13:00N 04°24' W 008°24'6 6.0 1016.8 26.4
2014-Jul-18 12:00N 04°24' W 008°30'12 6.0 1017.3 25.5
2014-Jul-18 10:00N 04°24' W 008°42'6 6.0 1018.1 24.4
2014-Jul-18 09:00N 04°24' W 008°48'6 6.0 1017.9 24.6
2014-Jul-18 08:00N 04°24' W 008°54'6 6.0 1017.6 24.5
2014-Jul-18 07:00N 04°24' W 009°00'6 6.0 1016.9 24.7
2014-Jul-18 06:00N 04°24' W 009°06'8 8.5 1016.6 24.4
2014-Jul-18 05:00N 04°30' W 009°12'8 8.5 1016.1 24.4
2014-Jul-18 04:00N 04°36' W 009°18'6 6.0 1016.0 24.6
2014-Jul-18 03:00N 04°42' W 009°18'6 6.0 1016.2 24.3
2014-Jul-18 02:00N 04°42' W 009°24'8 8.5 1016.5 24.2
2014-Jul-18 01:00N 04°48' W 009°30'8 8.5 1016.8 24.3
2014-Jul-18 00:00N 04°54' W 009°36'6 6.0 1017.0 24.9
2014-Jul-17 23:00N 05°00' W 009°36'13 6.7 1016.9 24.8
2014-Jul-17 21:00N 05°06' W 009°48'8 8.5 1016.5 24.5
2014-Jul-17 20:00N 05°12' W 009°54'8 4.2 1015.8 24.5
2014-Jul-17 18:00N 05°18' W 010°00'8 8.5 1014.8 24.4
2014-Jul-17 17:00N 05°24' W 010°06'8 8.5 1014.8 24.4
2014-Jul-17 16:00N 05°30' W 010°12'6 6.0 1014.8 24.5
2014-Jul-17 15:00N 05°30' W 010°18'8 8.5 1014.9 24.4
2014-Jul-17 14:00N 05°36' W 010°24'8 8.5 1015.1 24.6
2014-Jul-17 13:00N 05°42' W 010°30'13 4.5 1015.3 24.5
2014-Jul-17 10:00N 05°48' W 010°42'8 8.5 1016.2 24.6
2014-Jul-17 09:00N 05°54' W 010°48'6 6.0 1015.7 24.5
2014-Jul-17 08:00N 06°00' W 010°48'13 6.7 1015.1 24.2
2014-Jul-17 06:00N 06°06' W 011°00'13 6.7 1014.2 23.5
2014-Jul-17 04:00N 06°12' W 011°12'8 8.5 1014.2 22.2
2014-Jul-17 03:00N 06°18' W 011°18'8 8.5 1015.2 21.7
2014-Jul-17 02:00N 06°24' W 011°24'6 6.0 1015.7 20.9
2014-Jul-17 01:00N 06°24' W 011°30'8 8.5 1017.2 21.2
2014-Jul-17 00:00N 06°30' W 011°36'6 6.0 1015.3 23.4
2014-Jul-16 23:00N 06°30' W 011°42'8 8.5 1015.7 24.2
2014-Jul-16 22:00N 06°36' W 011°48'6 6.0 1016.0 24.8
2014-Jul-16 21:00N 06°42' W 011°48'6 6.0 1016.0 24.5
2014-Jul-16 20:00N 06°42' W 011°54'8 8.5 1015.2 26.0
2014-Jul-16 19:00N 06°48' W 012°00'8 8.5 1015.0 25.9
2014-Jul-16 18:00N 06°54' W 012°06'6 6.0 1015.1 26.4
2014-Jul-16 17:00N 06°54' W 012°12'8 8.5 1015.0 26.3
2014-Jul-16 16:00N 07°00' W 012°18'13 6.7 1015.3 26.8
2014-Jul-16 14:00N 07°06' W 012°30'6 6.0 1016.3 25.8
2014-Jul-16 13:00N 07°06' W 012°36'6 6.0 1016.9 26.4
2014-Jul-16 12:00N 07°06' W 012°42'8 8.5 1017.3 27.8
2014-Jul-16 11:00N 07°12' W 012°48'0 0.0 1017.0 27.1
2014-Jul-16 10:00N 07°12' W 012°48'6 6.0 1017.1 26.4
2014-Jul-16 09:00N 07°12' W 012°54'1313.3 1017.0 26.3
2014-Jul-16 08:00N 07°18' W 013°06'6 6.0 1016.8 25.5
2014-Jul-16 07:00N 07°12' W 013°06'8 8.5 1016.4 25.3
2014-Jul-16 06:00N 07°18' W 013°12'18 8.9 1016.4 25.3
2014-Jul-16 04:00N 07°18' W 013°30'6 6.0 1015.9 25.2
2014-Jul-16 03:00N 07°18' W 013°36'17 8.5 1016.0 25.3
2014-Jul-16 01:00N 07°30' W 013°48'6 5.9 1016.7 25.5
2014-Jul-16 00:00N 07°30' W 013°54'8 8.4 1017.0 25.6
2014-Jul-15 23:00N 07°36' W 014°00'6 5.9 1016.5 25.7
2014-Jul-15 22:00N 07°36' W 014°06'6 6.0 1016.2 25.7
2014-Jul-15 21:00N 07°42' W 014°06'8 8.4 1015.7 25.7
2014-Jul-15 20:00N 07°48' W 014°12'8 8.4 1015.9 25.8
2014-Jul-15 19:00N 07°54' W 014°18'0 0.0 1015.4 25.9
2014-Jul-15 18:00N 07°54' W 014°18'6 6.0 1014.8 26.3
2014-Jul-15 17:00N 08°00' W 014°18'6 6.0 1014.5 26.6
2014-Jul-15 16:00N 08°06' W 014°18'0 0.0 1014.9 26.6
2014-Jul-15 15:00N 08°06' W 014°18'1313.4 1014.9 26.5
2014-Jul-15 14:00N 08°18' W 014°24'6 6.0 1015.2 26.2
2014-Jul-15 13:00N 08°24' W 014°24'0 0.0 1015.8 26.6
2014-Jul-15 12:00N 08°24' W 014°24'8 8.4 1016.0 26.8
2014-Jul-15 11:00N 08°30' W 014°30'6 6.0 1015.9 25.8
2014-Jul-15 10:00N 08°24' W 014°30'6 6.0 1015.9 26.1
2014-Jul-15 09:00N 08°30' W 014°30'8 8.4 1015.2 26.4
2014-Jul-15 08:00N 08°36' W 014°36'8 4.2 1014.9 25.1
2014-Jul-15 06:00N 08°42' W 014°42'8 8.4 1014.4 25.2
2014-Jul-15 05:00N 08°48' W 014°48'6 5.9 1014.2 25.4
2014-Jul-15 04:00N 08°48' W 014°54'0 0.0 1014.5 25.4
2014-Jul-15 03:00N 08°48' W 014°54'13 6.6 1014.7 25.4
2014-Jul-15 01:00N 08°54' W 015°06'8 8.4 1014.8 25.4
2014-Jul-15 00:00N 09°00' W 015°12'6 5.9 1015.2 25.3
2014-Jul-14 23:00N 09°00' W 015°18'6 5.9 1014.9 25.4
2014-Jul-14 22:00N 09°00' W 015°24'6 6.0 1014.4 25.4
2014-Jul-14 21:00N 09°06' W 015°24'12 5.9 1014.1 25.5
2014-Jul-14 19:00N 09°06' W 015°36'8 8.4 1013.6 25.4
2014-Jul-14 18:00N 09°12' W 015°42'6 5.9 1013.3 25.5
2014-Jul-14 17:00N 09°12' W 015°48'8 8.4 1012.8 25.9
2014-Jul-14 16:00N 09°18' W 015°54'0 0.0 1012.8 26.6
2014-Jul-14 15:00N 09°18' W 015°54'6 3.0 1013.9 25.7
2014-Jul-14 13:00N 09°18' W 016°00'6 5.9 1014.4 26.4
2014-Jul-14 12:00N 09°18' W 016°06'8 8.4 1014.0 26.7
2014-Jul-14 11:00N 09°24' W 016°12'6 5.9 1014.9 26.2
2014-Jul-14 10:00N 09°24' W 016°18'13 6.6 1015.1 26.0
2014-Jul-14 08:00N 09°30' W 016°30'8 8.4 1013.8 25.4
2014-Jul-14 07:00N 09°36' W 016°36'6 5.9 1013.4 25.0
2014-Jul-14 06:00N 09°36' W 016°42'8 8.4 1014.1 24.8
2014-Jul-14 05:00N 09°42' W 016°48'2110.7 1014.0 25.5
2014-Jul-14 03:00N 09°54' W 017°06'1716.8 1013.9 25.5
2014-Jul-14 02:00N 10°06' W 017°18'1313.2 1014.9 25.6
2014-Jul-14 01:00N 10°12' W 017°30'   1015.0 25.7
Track history (hours):
 
Tides and Currents Weather Stations Pressure Air Temp Water Temp Dewpoint Dewpoint Depression Visibility Wind Speed Wind Dir Waves Ship Positions

Callsign AMOUK20 (name unknown)

Last reported at 2014-Jul-24 03:00 UTC. Time now 2014-Jul-24 04:27 UTC.
Position N 04°24' E 005°00'.

Barometer 1015.4 mb
Air temperature 23.9 ° C

Date/timePositionNaut miles runAvg speedWind from/ knotsBaromVisibWave heightAir tempDewpointWater temp
2014-Jul-24 03:00N 04°24' E 005°00'13 6.7 1015.4 23.9
2014-Jul-24 01:00N 04°36' E 004°54'8 8.5 1016.0 24.2
2014-Jul-24 00:00N 04°42' E 004°48'6 6.0 1016.4 24.3
2014-Jul-23 23:00N 04°48' E 004°48'8 8.5 1017.0 24.5
2014-Jul-23 22:00N 04°54' E 004°42'1212.0 1016.9 24.5
2014-Jul-23 21:00N 05°06' E 004°42'6 6.0 1016.2 24.6
2014-Jul-23 20:00N 05°12' E 004°42'8 8.5 1016.1 24.6
2014-Jul-23 19:00N 05°18' E 004°36'6 6.0 1015.6 24.8
2014-Jul-23 18:00N 05°24' E 004°36'8 8.5 1015.0 24.8
2014-Jul-23 17:00N 05°30' E 004°30'8 8.5 1014.3 25.0
2014-Jul-23 16:00N 05°36' E 004°24'6 6.0 1014.3 25.3
2014-Jul-23 15:00N 05°42' E 004°24'8 8.5 1014.5 25.6
2014-Jul-23 14:00N 05°48' E 004°18'6 6.0 1014.8 25.6
2014-Jul-23 13:00N 05°48' E 004°12'8 8.5 1015.5 25.9
2014-Jul-23 12:00N 05°54' E 004°06'8 8.5 1016.5 25.3
2014-Jul-23 11:00N 06°00' E 004°00'6 6.0 1017.0 25.2
2014-Jul-23 10:00N 06°06' E 004°00'6 6.0 1017.4 25.3
2014-Jul-23 09:00N 06°06' E 003°54'6 6.0 1017.4 25.4
2014-Jul-23 08:00N 06°06' E 003°48'1211.9 1016.5 24.9
2014-Jul-23 07:00N 06°06' E 003°36'6 6.0 1016.3 24.7
2014-Jul-23 06:00N 06°06' E 003°30'6 6.0 1015.8 24.5
2014-Jul-23 05:00N 06°06' E 003°24'6 6.0 1015.2 24.3
2014-Jul-23 04:00N 06°06' E 003°18'1211.9 1014.9 24.2
2014-Jul-23 03:00N 06°06' E 003°06'6 6.0 1014.7 24.2
2014-Jul-23 02:00N 06°06' E 003°00'6 6.0 1014.8 24.3
2014-Jul-23 01:00N 06°06' E 002°54'6 6.0 1015.4 24.4
2014-Jul-23 00:00N 06°06' E 002°48'18 8.9 1015.5 24.4
2014-Jul-22 22:00N 06°06' E 002°30'6 6.0 1016.5 24.4
2014-Jul-22 21:00N 06°06' E 002°24'6 6.0 1016.4 24.3
2014-Jul-22 20:00N 06°06' E 002°18'6 6.0 1016.0 24.3
2014-Jul-22 19:00N 06°06' E 002°12'1211.9 1015.5 24.2
2014-Jul-22 18:00N 06°06' E 002°00'13 6.7 1015.3 24.2
2014-Jul-22 16:00N 06°00' E 001°48'6 6.0 1014.8 24.5
2014-Jul-22 15:00N 06°00' E 001°42'6 6.0 1014.4 24.5
2014-Jul-22 14:00N 06°00' E 001°36'1313.4 1015.0 24.1
2014-Jul-22 13:00N 05°54' E 001°24'6 6.0 1015.9 23.9
2014-Jul-22 12:00N 05°54' E 001°18'0 0.0 1016.8 23.9
2014-Jul-22 11:00N 05°54' E 001°18'1313.4 1017.1 23.8
2014-Jul-22 10:00N 05°42' E 001°12'0 0.0 1018.0 23.7
2014-Jul-22 09:00N 05°42' E 001°12'8 8.5 1017.9 23.4
2014-Jul-22 08:00N 05°36' E 001°06'6 6.0 1017.4 23.4
2014-Jul-22 07:00N 05°30' E 001°06'6 6.0 1016.3 23.3
2014-Jul-22 06:00N 05°30' E 001°00'1211.9 1015.9 22.9
2014-Jul-22 05:00N 05°30' E 000°48'6 6.0 1016.2 22.8
2014-Jul-22 04:00N 05°30' E 000°42'6 6.0 1015.4 22.7
2014-Jul-22 03:00N 05°30' E 000°36'6 6.0 1015.3 22.7
2014-Jul-22 02:00N 05°30' E 000°30'6 6.0 1015.5 22.5
2014-Jul-22 01:00N 05°30' E 000°24'6 6.0 1015.8 22.6
2014-Jul-22 00:00N 05°30' E 000°18'19 9.4 1016.2 22.7
2014-Jul-21 22:00N 05°24' E 000°00'6 6.0 1016.5 23.1
2014-Jul-21 21:00N 05°18' E 000°00'8 8.5 1016.3 23.1
2014-Jul-21 20:00N 05°12' W 000°06'6 6.0 1016.3 23.2
2014-Jul-21 19:00N 05°12' W 000°12'8 8.5 1016.3 23.7
2014-Jul-21 18:00N 05°06' W 000°18'8 8.5 1015.9 24.6
2014-Jul-21 17:00N 05°00' W 000°24'8 8.5 1015.3 25.6
2014-Jul-21 16:00N 04°54' W 000°30'6 6.0 1015.1 26.3
2014-Jul-21 15:00N 04°48' W 000°30'13 6.7 1015.4 24.5
2014-Jul-21 13:00N 04°42' W 000°42'8 8.5 1016.6 26.0
2014-Jul-21 12:00N 04°36' W 000°48'8 8.5 1017.3 25.6
2014-Jul-21 11:00N 04°30' W 000°54'8 8.5 1018.1 24.9
2014-Jul-21 10:00N 04°24' W 001°00'6 6.0 1018.2 24.4
2014-Jul-21 09:00N 04°24' W 001°06'8 8.5 1018.2 24.2
2014-Jul-21 08:00N 04°18' W 001°12'6 6.0 1017.7 23.5
2014-Jul-21 07:00N 04°18' W 001°18'8 8.5 1017.1 23.3
2014-Jul-21 06:00N 04°12' W 001°24'6 6.0 1016.5 23.1
2014-Jul-21 05:00N 04°12' W 001°30'6 6.0 1016.0 23.3
2014-Jul-21 04:00N 04°12' W 001°36'6 6.0 1015.8 23.3
2014-Jul-21 03:00N 04°12' W 001°42'6 6.0 1015.9 23.3
2014-Jul-21 02:00N 04°12' W 001°48'8 8.5 1016.1 23.2
2014-Jul-21 01:00N 04°18' W 001°54'6 6.0 1016.5 23.3
2014-Jul-21 00:00N 04°18' W 002°00'8 8.5 1016.8 23.3
2014-Jul-20 23:00N 04°24' W 002°06'6 6.0 1017.0 23.4
2014-Jul-20 22:00N 04°24' W 002°12'6 6.0 1017.2 23.3
2014-Jul-20 21:00N 04°24' W 002°18'8 8.5 1016.9 23.3
2014-Jul-20 20:00N 04°30' W 002°24'6 6.0 1016.4 23.5
2014-Jul-20 19:00N 04°30' W 002°30'8 8.5 1015.6 23.5
2014-Jul-20 18:00N 04°36' W 002°36'6 6.0 1014.9 23.7
2014-Jul-20 17:00N 04°36' W 002°42'8 8.5 1014.6 24.2
2014-Jul-20 16:00N 04°42' W 002°48'6 6.0 1014.9 24.0
2014-Jul-20 15:00N 04°42' W 002°54'18 9.0 1015.1 24.4
2014-Jul-20 13:00N 04°42' W 003°12'8 8.5 1016.3 24.7
2014-Jul-20 12:00N 04°48' W 003°18'12 6.0 1016.8 24.7
2014-Jul-20 10:00N 04°48' W 003°30'8 8.5 1017.3 24.5
2014-Jul-20 09:00N 04°54' W 003°36'6 6.0 1017.0 24.3
2014-Jul-20 08:00N 04°54' W 003°42'8 8.5 1016.9 23.1
2014-Jul-20 07:00N 05°00' W 003°48'12 6.0 1015.9 22.7
2014-Jul-20 05:00N 05°00' W 004°00'6 6.0 1015.2 22.9
2014-Jul-20 04:00N 05°00' W 004°06'6 6.0 1014.8 22.7
2014-Jul-20 03:00N 05°00' W 004°12'13 6.7 1014.4 22.8
2014-Jul-20 01:00N 04°54' W 004°24'6 6.0 1015.5 22.8
2014-Jul-20 00:00N 04°54' W 004°30'6 6.0 1015.5 22.9
2014-Jul-19 23:00N 04°54' W 004°36'6 6.0 1016.5 23.0
2014-Jul-19 22:00N 04°54' W 004°42'1212.0 1016.6 23.0
2014-Jul-19 21:00N 04°54' W 004°54'6 6.0 1016.3 22.8
2014-Jul-19 20:00N 04°54' W 005°00'6 6.0 1015.8 23.6
2014-Jul-19 19:00N 04°54' W 005°06'6 6.0 1015.2 23.9
2014-Jul-19 18:00N 04°54' W 005°12'6 6.0 1014.5 24.7
2014-Jul-19 17:00N 04°54' W 005°18'8 8.5 1014.3 25.5
2014-Jul-19 16:00N 04°48' W 005°24'6 6.0 1014.5 26.7
2014-Jul-19 15:00N 04°48' W 005°30'19 9.5 1014.9 26.7
2014-Jul-19 13:00N 04°42' W 005°48'6 6.0 1016.7 24.0
2014-Jul-19 12:00N 04°42' W 005°54'6 6.0 1017.1 25.6
2014-Jul-19 11:00N 04°42' W 006°00'8 8.5 1017.9 24.8
2014-Jul-19 10:00N 04°36' W 006°06'6 6.0 1018.0 22.8
2014-Jul-19 09:00N 04°36' W 006°12'12 6.0 1017.6 22.6
2014-Jul-19 07:00N 04°36' W 006°24'8 8.5 1016.5 22.9
2014-Jul-19 06:00N 04°30' W 006°30'6 6.0 1016.2 23.3
2014-Jul-19 05:00N 04°30' W 006°36'8 8.5 1015.8 23.5
2014-Jul-19 04:00N 04°24' W 006°42'13 6.7 1015.6 24.1
2014-Jul-19 02:00N 04°18' W 006°54'6 6.0 1016.0 24.4
2014-Jul-19 01:00N 04°18' W 007°00'1212.0 1016.5 24.5
2014-Jul-19 00:00N 04°18' W 007°12'8 8.5 1017.0 24.6
2014-Jul-18 23:00N 04°12' W 007°18'13 6.7 1017.5 24.4
2014-Jul-18 21:00N 04°06' W 007°30'6 6.0 1016.9 24.5
2014-Jul-18 20:00N 04°06' W 007°36'6 6.0 1016.2 24.8
2014-Jul-18 19:00N 04°06' W 007°42'8 8.5 1016.0 24.9
2014-Jul-18 18:00N 04°12' W 007°48'6 6.0 1015.5 25.1
2014-Jul-18 17:00N 04°12' W 007°54'19 9.5 1015.2 25.5
2014-Jul-18 15:00N 04°18' W 008°12'6 6.0 1015.8 26.2
2014-Jul-18 14:00N 04°18' W 008°18'8 8.5 1016.2 26.4
2014-Jul-18 13:00N 04°24' W 008°24'6 6.0 1016.8 26.4
2014-Jul-18 12:00N 04°24' W 008°30'12 6.0 1017.3 25.5
2014-Jul-18 10:00N 04°24' W 008°42'6 6.0 1018.1 24.4
2014-Jul-18 09:00N 04°24' W 008°48'6 6.0 1017.9 24.6
2014-Jul-18 08:00N 04°24' W 008°54'6 6.0 1017.6 24.5
2014-Jul-18 07:00N 04°24' W 009°00'6 6.0 1016.9 24.7
2014-Jul-18 06:00N 04°24' W 009°06'8 8.5 1016.6 24.4
2014-Jul-18 05:00N 04°30' W 009°12'8 8.5 1016.1 24.4
2014-Jul-18 04:00N 04°36' W 009°18'6 6.0 1016.0 24.6
2014-Jul-18 03:00N 04°42' W 009°18'6 6.0 1016.2 24.3
2014-Jul-18 02:00N 04°42' W 009°24'8 8.5 1016.5 24.2
2014-Jul-18 01:00N 04°48' W 009°30'8 8.5 1016.8 24.3
2014-Jul-18 00:00N 04°54' W 009°36'6 6.0 1017.0 24.9
2014-Jul-17 23:00N 05°00' W 009°36'13 6.7 1016.9 24.8
2014-Jul-17 21:00N 05°06' W 009°48'8 8.5 1016.5 24.5
2014-Jul-17 20:00N 05°12' W 009°54'8 4.2 1015.8 24.5
2014-Jul-17 18:00N 05°18' W 010°00'8 8.5 1014.8 24.4
2014-Jul-17 17:00N 05°24' W 010°06'8 8.5 1014.8 24.4
2014-Jul-17 16:00N 05°30' W 010°12'6 6.0 1014.8 24.5
2014-Jul-17 15:00N 05°30' W 010°18'8 8.5 1014.9 24.4
2014-Jul-17 14:00N 05°36' W 010°24'8 8.5 1015.1 24.6
2014-Jul-17 13:00N 05°42' W 010°30'13 4.5 1015.3 24.5
2014-Jul-17 10:00N 05°48' W 010°42'8 8.5 1016.2 24.6
2014-Jul-17 09:00N 05°54' W 010°48'6 6.0 1015.7 24.5
2014-Jul-17 08:00N 06°00' W 010°48'13 6.7 1015.1 24.2
2014-Jul-17 06:00N 06°06' W 011°00'13 6.7 1014.2 23.5
2014-Jul-17 04:00N 06°12' W 011°12'8 8.5 1014.2 22.2
2014-Jul-17 03:00N 06°18' W 011°18'8 8.5 1015.2 21.7
2014-Jul-17 02:00N 06°24' W 011°24'6 6.0 1015.7 20.9
2014-Jul-17 01:00N 06°24' W 011°30'8 8.5 1017.2 21.2
2014-Jul-17 00:00N 06°30' W 011°36'6 6.0 1015.3 23.4
2014-Jul-16 23:00N 06°30' W 011°42'8 8.5 1015.7 24.2
2014-Jul-16 22:00N 06°36' W 011°48'6 6.0 1016.0 24.8
2014-Jul-16 21:00N 06°42' W 011°48'6 6.0 1016.0 24.5
2014-Jul-16 20:00N 06°42' W 011°54'8 8.5 1015.2 26.0
2014-Jul-16 19:00N 06°48' W 012°00'8 8.5 1015.0 25.9
2014-Jul-16 18:00N 06°54' W 012°06'6 6.0 1015.1 26.4
2014-Jul-16 17:00N 06°54' W 012°12'8 8.5 1015.0 26.3
2014-Jul-16 16:00N 07°00' W 012°18'13 6.7 1015.3 26.8
2014-Jul-16 14:00N 07°06' W 012°30'6 6.0 1016.3 25.8
2014-Jul-16 13:00N 07°06' W 012°36'6 6.0 1016.9 26.4
2014-Jul-16 12:00N 07°06' W 012°42'8 8.5 1017.3 27.8
2014-Jul-16 11:00N 07°12' W 012°48'0 0.0 1017.0 27.1
2014-Jul-16 10:00N 07°12' W 012°48'6 6.0 1017.1 26.4
2014-Jul-16 09:00N 07°12' W 012°54'1313.3 1017.0 26.3
2014-Jul-16 08:00N 07°18' W 013°06'6 6.0 1016.8 25.5
2014-Jul-16 07:00N 07°12' W 013°06'8 8.5 1016.4 25.3
2014-Jul-16 06:00N 07°18' W 013°12'18 8.9 1016.4 25.3
2014-Jul-16 04:00N 07°18' W 013°30'6 6.0 1015.9 25.2
2014-Jul-16 03:00N 07°18' W 013°36'17 8.5 1016.0 25.3
2014-Jul-16 01:00N 07°30' W 013°48'6 5.9 1016.7 25.5
2014-Jul-16 00:00N 07°30' W 013°54'8 8.4 1017.0 25.6
2014-Jul-15 23:00N 07°36' W 014°00'6 5.9 1016.5 25.7
2014-Jul-15 22:00N 07°36' W 014°06'6 6.0 1016.2 25.7
2014-Jul-15 21:00N 07°42' W 014°06'8 8.4 1015.7 25.7
2014-Jul-15 20:00N 07°48' W 014°12'8 8.4 1015.9 25.8
2014-Jul-15 19:00N 07°54' W 014°18'0 0.0 1015.4 25.9
2014-Jul-15 18:00N 07°54' W 014°18'6 6.0 1014.8 26.3
2014-Jul-15 17:00N 08°00' W 014°18'6 6.0 1014.5 26.6
2014-Jul-15 16:00N 08°06' W 014°18'0 0.0 1014.9 26.6
2014-Jul-15 15:00N 08°06' W 014°18'1313.4 1014.9 26.5
2014-Jul-15 14:00N 08°18' W 014°24'6 6.0 1015.2 26.2
2014-Jul-15 13:00N 08°24' W 014°24'0 0.0 1015.8 26.6
2014-Jul-15 12:00N 08°24' W 014°24'8 8.4 1016.0 26.8
2014-Jul-15 11:00N 08°30' W 014°30'6 6.0 1015.9 25.8
2014-Jul-15 10:00N 08°24' W 014°30'6 6.0 1015.9 26.1
2014-Jul-15 09:00N 08°30' W 014°30'8 8.4 1015.2 26.4
2014-Jul-15 08:00N 08°36' W 014°36'8 4.2 1014.9 25.1
2014-Jul-15 06:00N 08°42' W 014°42'8 8.4 1014.4 25.2
2014-Jul-15 05:00N 08°48' W 014°48'6 5.9 1014.2 25.4
2014-Jul-15 04:00N 08°48' W 014°54'0 0.0 1014.5 25.4
2014-Jul-15 03:00N 08°48' W 014°54'13 6.6 1014.7 25.4
2014-Jul-15 01:00N 08°54' W 015°06'8 8.4 1014.8 25.4
2014-Jul-15 00:00N 09°00' W 015°12'6 5.9 1015.2 25.3
2014-Jul-14 23:00N 09°00' W 015°18'6 5.9 1014.9 25.4
2014-Jul-14 22:00N 09°00' W 015°24'6 6.0 1014.4 25.4
2014-Jul-14 21:00N 09°06' W 015°24'12 5.9 1014.1 25.5
2014-Jul-14 19:00N 09°06' W 015°36'8 8.4 1013.6 25.4
2014-Jul-14 18:00N 09°12' W 015°42'6 5.9 1013.3 25.5
2014-Jul-14 17:00N 09°12' W 015°48'8 8.4 1012.8 25.9
2014-Jul-14 16:00N 09°18' W 015°54'0 0.0 1012.8 26.6
2014-Jul-14 15:00N 09°18' W 015°54'6 3.0 1013.9 25.7
2014-Jul-14 13:00N 09°18' W 016°00'6 5.9 1014.4 26.4
2014-Jul-14 12:00N 09°18' W 016°06'8 8.4 1014.0 26.7
2014-Jul-14 11:00N 09°24' W 016°12'6 5.9 1014.9 26.2
2014-Jul-14 10:00N 09°24' W 016°18'13 6.6 1015.1 26.0
2014-Jul-14 08:00N 09°30' W 016°30'8 8.4 1013.8 25.4
2014-Jul-14 07:00N 09°36' W 016°36'6 5.9 1013.4 25.0
2014-Jul-14 06:00N 09°36' W 016°42'8 8.4 1014.1 24.8
2014-Jul-14 05:00N 09°42' W 016°48'2110.7 1014.0 25.5
2014-Jul-14 03:00N 09°54' W 017°06'1716.8 1013.9 25.5
2014-Jul-14 02:00N 10°06' W 017°18'1313.2 1014.9 25.6
2014-Jul-14 01:00N 10°12' W 017°30'   1015.0 25.7

Dump ship's entire track history